createdAt,value
2018-04-23T00:00:56.158Z,15.61
2018-04-23T00:02:01.155Z,15.81
2018-04-23T00:03:06.644Z,15.90
2018-04-23T00:04:11.541Z,16.00
2018-04-23T00:05:16.229Z,15.88
2018-04-23T00:06:21.150Z,15.72
2018-04-23T00:07:27.069Z,15.50
2018-04-23T00:08:32.037Z,15.51
2018-04-23T00:09:37.302Z,15.51
2018-04-23T00:10:41.889Z,15.38
2018-04-23T00:11:46.691Z,15.42
2018-04-23T00:12:51.937Z,15.29
2018-04-23T00:13:56.580Z,15.29
2018-04-23T00:15:02.781Z,15.30
2018-04-23T00:16:07.153Z,15.38
2018-04-23T00:17:12.147Z,15.31
2018-04-23T00:18:17.170Z,15.35
2018-04-23T00:19:21.761Z,15.38
2018-04-23T00:20:26.742Z,15.60
2018-04-23T00:21:32.166Z,15.79
2018-04-23T00:22:37.280Z,15.89
2018-04-23T00:23:43.372Z,15.70
2018-04-23T00:24:47.894Z,15.72
2018-04-23T00:25:52.386Z,15.61
2018-04-23T00:26:56.981Z,15.64
2018-04-23T00:28:02.045Z,15.52
2018-04-23T00:29:06.536Z,15.57
2018-04-23T00:30:12.245Z,15.68
2018-04-23T00:31:16.817Z,15.71
2018-04-23T00:32:21.806Z,15.74
2018-04-23T00:33:26.877Z,15.74
2018-04-23T00:34:31.866Z,15.64
2018-04-23T00:35:37.278Z,15.65
2018-04-23T00:36:42.199Z,15.74
2018-04-23T00:37:47.438Z,15.70
2018-04-23T00:38:51.852Z,15.67
2018-04-23T00:39:56.805Z,15.60
2018-04-23T00:41:02.622Z,15.66
2018-04-23T00:42:07.883Z,15.70
2018-04-23T00:43:12.486Z,15.61
2018-04-23T00:44:17.958Z,15.57
2018-04-23T00:45:22.452Z,15.47
2018-04-23T00:46:26.901Z,15.57
2018-04-23T00:47:32.078Z,15.64
2018-04-23T00:48:36.607Z,15.42
2018-04-23T00:49:42.495Z,15.45
2018-04-23T00:50:47.001Z,15.41
2018-04-23T00:51:51.725Z,15.58
2018-04-23T00:53:02.401Z,15.76
2018-04-23T00:54:07.007Z,16.04
2018-04-23T00:55:11.599Z,16.15
2018-04-23T00:56:16.156Z,16.29
2018-04-23T00:57:20.645Z,16.30
2018-04-23T00:58:26.367Z,16.24
2018-04-23T00:59:31.260Z,16.32
2018-04-23T01:00:35.809Z,16.42
2018-04-23T01:01:40.301Z,16.47
2018-04-23T01:02:45.869Z,16.56
2018-04-23T01:03:50.360Z,16.58
2018-04-23T01:04:54.911Z,16.62
2018-04-23T01:05:59.775Z,16.60
2018-04-23T01:07:04.297Z,16.61
2018-04-23T01:08:08.652Z,16.62
2018-04-23T01:09:13.277Z,16.46
2018-04-23T01:10:18.530Z,16.39
2018-04-23T01:11:25.369Z,16.41
2018-04-23T01:12:31.406Z,16.33
2018-04-23T01:13:36.147Z,16.48
2018-04-23T01:14:40.677Z,16.54
2018-04-23T01:15:45.283Z,16.69
2018-04-23T01:16:50.233Z,16.74
2018-04-23T01:17:55.616Z,16.76
2018-04-23T01:19:01.492Z,16.79
2018-04-23T01:20:06.537Z,16.85
2018-04-23T01:21:12.082Z,16.92
2018-04-23T01:22:17.066Z,17.00
2018-04-23T01:23:21.604Z,17.03
2018-04-23T01:24:25.958Z,17.07
2018-04-23T01:25:31.324Z,17.03
2018-04-23T01:26:36.362Z,17.06
2018-04-23T01:27:40.713Z,17.06
2018-04-23T01:28:45.237Z,17.05
2018-04-23T01:29:49.873Z,17.06
2018-04-23T01:30:55.805Z,17.05
2018-04-23T01:32:02.142Z,17.03
2018-04-23T01:33:06.701Z,16.98
2018-04-23T01:34:11.161Z,17.04
2018-04-23T01:35:15.958Z,17.11
2018-04-23T01:36:21.242Z,17.14
2018-04-23T01:37:26.238Z,17.10
2018-04-23T01:38:31.487Z,17.15
2018-04-23T01:39:35.835Z,17.22
2018-04-23T01:40:40.325Z,17.24
2018-04-23T01:41:44.821Z,17.17
2018-04-23T01:42:49.313Z,17.18
2018-04-23T01:43:54.378Z,17.13
2018-04-23T01:45:01.593Z,17.13
2018-04-23T01:46:06.230Z,17.08
2018-04-23T01:47:11.315Z,17.13
2018-04-23T01:48:15.915Z,17.16
2018-04-23T01:49:21.072Z,17.12
2018-04-23T01:50:25.560Z,17.07
2018-04-23T01:51:30.479Z,17.12
2018-04-23T01:52:35.157Z,17.07
2018-04-23T01:53:40.298Z,17.11
2018-04-23T01:54:44.796Z,17.20
2018-04-23T01:55:50.073Z,17.18
2018-04-23T01:56:55.633Z,17.08
2018-04-23T01:58:01.130Z,16.97
2018-04-23T01:59:05.712Z,16.91
2018-04-23T02:00:10.536Z,16.81
2018-04-23T02:01:15.103Z,16.79
2018-04-23T02:02:19.678Z,16.85
2018-04-23T02:03:24.722Z,16.66
2018-04-23T02:04:29.550Z,16.50
2018-04-23T02:05:35.888Z,16.42
2018-04-23T02:06:41.162Z,16.35
2018-04-23T02:07:45.765Z,16.22
2018-04-23T02:08:50.397Z,16.10
2018-04-23T02:09:55.058Z,16.10
2018-04-23T02:11:00.717Z,16.16
2018-04-23T02:12:05.351Z,16.26
2018-04-23T02:13:09.936Z,16.32
2018-04-23T02:14:14.665Z,16.46
2018-04-23T02:15:19.217Z,16.47
2018-04-23T02:16:24.664Z,16.42
2018-04-23T02:17:29.448Z,16.41
2018-04-23T02:18:34.005Z,16.16
2018-04-23T02:19:38.698Z,15.91
2018-04-23T02:20:44.849Z,15.77
2018-04-23T02:21:49.367Z,15.86
2018-04-23T02:22:54.333Z,15.97
2018-04-23T02:23:59.287Z,16.07
2018-04-23T02:25:03.883Z,16.03
2018-04-23T02:26:08.427Z,16.09
2018-04-23T02:27:13.024Z,16.07
2018-04-23T02:28:17.418Z,15.97
2018-04-23T02:29:22.921Z,15.95
2018-04-23T02:30:28.078Z,16.01
2018-04-23T02:31:32.670Z,16.02
2018-04-23T02:32:37.819Z,16.04
2018-04-23T02:33:43.596Z,16.11
2018-04-23T02:34:48.693Z,16.18
2018-04-23T02:35:53.714Z,16.19
2018-04-23T02:36:58.721Z,16.13
2018-04-23T02:38:03.366Z,16.22
2018-04-23T02:39:07.990Z,16.17
2018-04-23T02:40:12.548Z,16.15
2018-04-23T02:41:17.082Z,16.10
2018-04-23T02:42:21.650Z,16.01
2018-04-23T02:43:26.448Z,16.00
2018-04-23T02:44:30.851Z,16.04
2018-04-23T02:45:35.316Z,16.09
2018-04-23T02:46:39.881Z,16.06
2018-04-23T02:47:44.449Z,16.00
2018-04-23T02:48:48.968Z,16.04
2018-04-23T02:49:54.083Z,16.02
2018-04-23T02:51:00.307Z,15.97
2018-04-23T02:52:05.058Z,15.95
2018-04-23T02:53:11.474Z,16.00
2018-04-23T02:54:16.790Z,16.04
2018-04-23T02:55:21.655Z,16.01
2018-04-23T02:56:26.491Z,15.91
2018-04-23T02:57:31.035Z,15.93
2018-04-23T02:58:36.148Z,15.95
2018-04-23T02:59:40.536Z,15.98
2018-04-23T03:00:45.579Z,15.96
2018-04-23T03:01:49.995Z,16.10
2018-04-23T03:02:54.908Z,16.06
2018-04-23T03:03:59.459Z,16.00
2018-04-23T03:05:04.083Z,15.95
2018-04-23T03:06:09.687Z,16.02
2018-04-23T03:07:14.191Z,15.96
2018-04-23T03:08:18.784Z,15.94
2018-04-23T03:09:23.666Z,15.94
2018-04-23T03:10:28.261Z,15.98
2018-04-23T03:11:32.797Z,15.94
2018-04-23T03:12:37.356Z,15.94
2018-04-23T03:13:41.873Z,15.90
2018-04-23T03:14:47.183Z,15.86
2018-04-23T03:15:52.313Z,15.87
2018-04-23T03:16:56.925Z,15.80
2018-04-23T03:18:01.477Z,15.81
2018-04-23T03:19:06.058Z,15.83
2018-04-23T03:20:10.608Z,15.82
2018-04-23T03:21:15.199Z,15.83
2018-04-23T03:22:20.215Z,15.81
2018-04-23T03:23:24.790Z,15.81
2018-04-23T03:24:29.370Z,15.83
2018-04-23T03:25:33.908Z,15.92
2018-04-23T03:26:38.500Z,15.80
2018-04-23T03:27:43.124Z,15.75
2018-04-23T03:28:48.404Z,15.71
2018-04-23T03:29:53.376Z,15.84
2018-04-23T03:30:58.039Z,15.92
2018-04-23T03:32:02.669Z,15.73
2018-04-23T03:33:07.332Z,15.71
2018-04-23T03:34:12.007Z,15.65
2018-04-23T03:35:17.079Z,15.71
2018-04-23T03:36:21.700Z,15.69
2018-04-23T03:37:26.582Z,15.59
2018-04-23T03:38:31.087Z,15.55
2018-04-23T03:39:35.814Z,15.63
2018-04-23T03:40:40.633Z,15.64
2018-04-23T03:41:45.552Z,15.61
2018-04-23T03:42:50.099Z,15.68
2018-04-23T03:43:54.716Z,15.70
2018-04-23T03:44:59.829Z,15.68
2018-04-23T03:46:04.847Z,15.68
2018-04-23T03:47:09.554Z,15.72
2018-04-23T03:48:14.526Z,15.64
2018-04-23T03:49:19.792Z,15.67
2018-04-23T03:50:24.366Z,15.71
2018-04-23T03:51:28.926Z,15.79
2018-04-23T03:52:33.495Z,15.73
2018-04-23T03:53:38.035Z,15.87
2018-04-23T03:54:43.200Z,15.92
2018-04-23T03:55:47.712Z,15.94
2018-04-23T03:56:52.246Z,15.94
2018-04-23T03:57:56.882Z,15.78
2018-04-23T03:59:01.512Z,15.70
2018-04-23T04:00:06.122Z,15.44
2018-04-23T04:01:11.109Z,15.37
2018-04-23T04:02:15.721Z,15.32
2018-04-23T04:03:20.327Z,15.21
2018-04-23T04:04:25.007Z,15.18
2018-04-23T04:05:29.672Z,15.11
2018-04-23T04:06:34.340Z,15.11
2018-04-23T04:07:39.503Z,15.12
2018-04-23T04:08:44.190Z,15.18
2018-04-23T04:09:48.997Z,15.27
2018-04-23T04:10:53.629Z,15.37
2018-04-23T04:11:58.391Z,15.44
2018-04-23T04:13:08.472Z,15.54
2018-04-23T04:16:22.144Z,15.60
2018-04-23T04:17:27.525Z,15.64
2018-04-23T04:18:37.934Z,15.67
2018-04-23T04:19:42.587Z,15.71
2018-04-23T04:20:47.273Z,15.67
2018-04-23T04:21:51.960Z,15.44
2018-04-23T04:22:59.586Z,15.43
2018-04-23T04:24:05.079Z,15.38
2018-04-23T04:25:09.801Z,15.30
2018-04-23T04:26:16.703Z,15.45
2018-04-23T04:27:21.386Z,15.49
2018-04-23T04:28:26.050Z,15.53
2018-04-23T04:29:30.813Z,15.45
2018-04-23T04:30:35.864Z,15.35
2018-04-23T04:31:40.544Z,15.22
2018-04-23T04:32:45.175Z,15.18
2018-04-23T04:33:50.736Z,15.19
2018-04-23T04:34:55.591Z,15.33
2018-04-23T04:36:00.820Z,15.25
2018-04-23T04:37:06.025Z,15.29
2018-04-23T04:38:10.688Z,15.24
2018-04-23T04:39:15.333Z,15.27
2018-04-23T04:40:19.946Z,15.23
2018-04-23T04:41:24.549Z,15.37
2018-04-23T04:42:29.187Z,15.48
2018-04-23T04:43:34.912Z,15.46
2018-04-23T04:44:39.550Z,15.56
2018-04-23T04:45:44.255Z,15.57
2018-04-23T04:46:48.914Z,15.63
2018-04-23T04:47:53.471Z,15.68
2018-04-23T04:48:57.862Z,15.67
2018-04-23T04:50:02.610Z,15.68
2018-04-23T04:51:07.016Z,15.59
2018-04-23T04:52:11.441Z,15.47
2018-04-23T04:53:15.918Z,15.58
2018-04-23T04:54:20.509Z,15.59
2018-04-23T04:55:25.062Z,15.67
2018-04-23T04:56:30.034Z,15.62
2018-04-23T04:57:34.571Z,15.57
2018-04-23T04:58:39.137Z,15.53
2018-04-23T04:59:43.720Z,15.64
2018-04-23T05:00:48.366Z,15.65
2018-04-23T05:01:53.025Z,15.66
2018-04-23T05:02:57.565Z,15.58
2018-04-23T05:04:02.203Z,15.67
2018-04-23T05:05:06.814Z,15.65
2018-04-23T05:06:11.517Z,15.64
2018-04-23T05:07:16.160Z,15.66
2018-04-23T05:08:21.500Z,15.72
2018-04-23T05:09:26.116Z,15.72
2018-04-23T05:10:30.755Z,15.70
2018-04-23T05:11:35.404Z,15.74
2018-04-23T05:12:40.081Z,15.73
2018-04-23T05:13:44.687Z,15.51
2018-04-23T05:14:49.688Z,15.35
2018-04-23T05:15:54.428Z,15.33
2018-04-23T05:16:59.093Z,15.31
2018-04-23T05:18:03.797Z,15.34
2018-04-23T05:19:08.466Z,15.44
2018-04-23T05:20:13.046Z,15.47
2018-04-23T05:21:19.172Z,15.39
2018-04-23T05:22:23.745Z,15.36
2018-04-23T05:23:28.331Z,15.16
2018-04-23T05:24:32.942Z,15.22
2018-04-23T05:25:37.649Z,15.00
2018-04-23T05:26:42.232Z,14.94
2018-04-23T05:27:47.231Z,14.91
2018-04-23T05:28:51.828Z,14.97
2018-04-23T05:29:56.487Z,15.01
2018-04-23T05:31:01.152Z,15.02
2018-04-23T05:32:05.799Z,14.97
2018-04-23T05:33:10.376Z,14.96
2018-04-23T05:34:15.351Z,14.94
2018-04-23T05:35:19.941Z,14.84
2018-04-23T05:36:24.504Z,14.99
2018-04-23T05:37:29.027Z,15.03
2018-04-23T05:38:33.610Z,15.06
2018-04-23T05:39:38.151Z,14.99
2018-04-23T05:40:43.260Z,14.98
2018-04-23T05:41:48.092Z,15.07
2018-04-23T05:42:52.709Z,15.01
2018-04-23T05:43:57.212Z,14.87
2018-04-23T05:45:01.847Z,14.80
2018-04-23T05:46:06.389Z,14.79
2018-04-23T05:47:11.356Z,14.79
2018-04-23T05:48:16.029Z,14.73
2018-04-23T05:49:20.638Z,14.70
2018-04-23T05:50:25.342Z,14.72
2018-04-23T05:51:29.994Z,14.78
2018-04-23T05:52:34.635Z,14.76
2018-04-23T05:53:39.751Z,14.84
2018-04-23T05:54:44.415Z,14.97
2018-04-23T05:55:49.116Z,14.82
2018-04-23T05:56:53.737Z,14.74
2018-04-23T05:57:58.405Z,14.97
2018-04-23T05:59:03.023Z,14.90
2018-04-23T06:00:07.952Z,14.90
2018-04-23T06:01:12.658Z,14.98
2018-04-23T06:02:17.325Z,14.92
2018-04-23T06:03:21.996Z,14.82
2018-04-23T06:04:26.622Z,14.92
2018-04-23T06:05:31.194Z,14.93
2018-04-23T06:06:36.196Z,14.83
2018-04-23T06:07:40.783Z,14.87
2018-04-23T06:08:45.525Z,14.99
2018-04-23T06:09:50.062Z,14.94
2018-04-23T06:10:55.099Z,14.99
2018-04-23T06:11:59.724Z,15.10
2018-04-23T06:13:04.380Z,15.06
2018-04-23T06:14:08.952Z,15.08
2018-04-23T06:15:13.581Z,15.05
2018-04-23T06:16:18.155Z,15.06
2018-04-23T06:17:23.236Z,15.00
2018-04-23T06:18:28.700Z,15.01
2018-04-23T06:19:33.321Z,14.81
2018-04-23T06:20:37.912Z,14.72
2018-04-23T06:21:42.416Z,14.63
2018-04-23T06:22:46.984Z,14.48
2018-04-23T06:23:51.873Z,14.63
2018-04-23T06:24:57.756Z,14.65
2018-04-23T06:26:02.503Z,14.56
2018-04-23T06:27:07.257Z,14.54
2018-04-23T06:28:12.120Z,14.66
2018-04-23T06:29:16.831Z,14.61
2018-04-23T06:30:21.498Z,14.68
2018-04-23T06:31:26.715Z,14.74
2018-04-23T06:32:31.397Z,14.83
2018-04-23T06:33:36.079Z,14.67
2018-04-23T06:34:40.927Z,14.59
2018-04-23T06:35:45.586Z,14.57
2018-04-23T06:36:50.278Z,14.45
2018-04-23T06:37:55.435Z,14.46
2018-04-23T06:39:00.154Z,14.56
2018-04-23T06:40:04.892Z,14.81
2018-04-23T06:41:09.645Z,15.01
2018-04-23T06:42:14.305Z,14.94
2018-04-23T06:43:19.065Z,15.12
2018-04-23T06:44:24.247Z,15.29
2018-04-23T06:45:28.971Z,15.10
2018-04-23T06:46:33.599Z,14.85
2018-04-23T06:47:38.273Z,15.06
2018-04-23T06:48:42.942Z,14.91
2018-04-23T06:49:47.571Z,14.83
2018-04-23T06:50:52.958Z,14.89
2018-04-23T06:51:57.628Z,14.85
2018-04-23T06:53:02.405Z,15.03
2018-04-23T06:54:07.083Z,15.05
2018-04-23T06:55:11.797Z,15.12
2018-04-23T06:56:16.451Z,15.28
2018-04-23T06:57:21.571Z,15.27
2018-04-23T06:58:26.152Z,15.54
2018-04-23T06:59:30.805Z,15.20
2018-04-23T07:00:35.479Z,15.25
2018-04-23T07:01:40.207Z,15.17
2018-04-23T07:02:44.840Z,15.24
2018-04-23T07:03:49.843Z,15.18
2018-04-23T07:04:54.548Z,14.88
2018-04-23T07:05:59.160Z,14.85
2018-04-23T07:07:03.778Z,14.86
2018-04-23T07:08:08.371Z,14.94
2018-04-23T07:09:12.941Z,15.30
2018-04-23T07:10:17.654Z,15.55
2018-04-23T07:11:22.280Z,15.50
2018-04-23T07:12:27.065Z,15.41
2018-04-23T07:13:31.619Z,15.51
2018-04-23T07:14:36.383Z,15.22
2018-04-23T07:15:41.666Z,15.01
2018-04-23T07:16:46.367Z,15.20
2018-04-23T07:17:51.447Z,15.31
2018-04-23T07:18:56.040Z,15.35
2018-04-23T07:20:00.697Z,15.34
2018-04-23T07:21:05.316Z,15.56
2018-04-23T07:22:10.786Z,15.60
2018-04-23T07:23:15.995Z,15.50
2018-04-23T07:24:20.648Z,15.30
2018-04-23T07:25:25.317Z,15.28
2018-04-23T07:27:33.196Z,15.76
2018-04-23T07:28:39.318Z,15.16
2018-04-23T07:29:44.017Z,15.18
2018-04-23T07:30:48.704Z,15.28
2018-04-23T07:31:53.760Z,15.74
2018-04-23T07:32:58.099Z,15.56
2018-04-23T07:34:02.541Z,15.56
2018-04-23T07:35:06.932Z,15.59
2018-04-23T07:36:11.251Z,15.60
2018-04-23T07:37:15.665Z,15.71
2018-04-23T07:38:20.133Z,15.93
2018-04-23T07:39:24.669Z,15.93
2018-04-23T07:40:29.482Z,16.00
2018-04-23T07:41:34.538Z,16.14
2018-04-23T07:42:39.265Z,15.95
2018-04-23T07:43:43.933Z,16.07
2018-04-23T07:44:48.705Z,16.01
2018-04-23T07:45:53.405Z,15.88
2018-04-23T07:46:58.082Z,16.06
2018-04-23T07:48:04.220Z,16.48
2018-04-23T07:49:08.966Z,16.15
2018-04-23T07:50:13.709Z,15.88
2018-04-23T07:51:18.766Z,15.96
2018-04-23T07:52:23.461Z,16.28
2018-04-23T07:53:29.431Z,16.80
2018-04-23T07:54:35.405Z,16.38
2018-04-23T07:55:40.234Z,16.41
2018-04-23T07:56:44.876Z,15.70
2018-04-23T07:57:49.629Z,15.90
2018-04-23T07:58:54.319Z,16.09
2018-04-23T07:59:59.084Z,16.13
2018-04-23T08:01:05.748Z,16.29
2018-04-23T08:02:12.028Z,16.57
2018-04-23T08:03:16.924Z,16.14
2018-04-23T08:04:21.602Z,16.35
2018-04-23T08:05:26.440Z,16.14
2018-04-23T08:06:31.107Z,16.22
2018-04-23T08:07:36.356Z,16.35
2018-04-23T08:08:41.870Z,16.21
2018-04-23T08:09:46.607Z,16.27
2018-04-23T08:10:51.280Z,16.44
2018-04-23T08:11:56.056Z,16.23
2018-04-23T08:13:00.625Z,16.25
2018-04-23T08:14:05.806Z,16.11
2018-04-23T08:15:10.536Z,16.03
2018-04-23T08:16:15.363Z,16.26
2018-04-23T08:17:20.018Z,16.49
2018-04-23T08:18:24.833Z,16.44
2018-04-23T08:19:29.346Z,16.84
2018-04-23T08:20:34.560Z,17.05
2018-04-23T08:21:39.225Z,16.80
2018-04-23T08:22:43.836Z,16.81
2018-04-23T08:23:48.625Z,17.18
2018-04-23T08:24:53.206Z,16.88
2018-04-23T08:25:57.684Z,16.83
2018-04-23T08:27:02.642Z,17.17
2018-04-23T08:28:07.333Z,17.24
2018-04-23T08:29:11.935Z,17.44
2018-04-23T08:30:16.503Z,17.55
2018-04-23T08:31:21.052Z,17.21
2018-04-23T08:32:25.769Z,17.32
2018-04-23T08:33:30.706Z,17.56
2018-04-23T08:34:35.280Z,17.00
2018-04-23T08:35:39.832Z,16.65
2018-04-23T08:36:44.607Z,17.06
2018-04-23T08:37:49.303Z,17.06
2018-04-23T08:38:53.993Z,16.92
2018-04-23T08:39:59.072Z,16.79
2018-04-23T08:41:03.781Z,16.60
2018-04-23T08:42:08.393Z,16.62
2018-04-23T08:43:13.124Z,16.31
2018-04-23T08:44:17.765Z,16.94
2018-04-23T08:45:22.436Z,16.81
2018-04-23T08:46:27.557Z,17.25
2018-04-23T08:47:32.378Z,17.34
2018-04-23T08:48:37.172Z,17.64
2018-04-23T08:49:41.748Z,17.85
2018-04-23T08:50:46.338Z,17.68
2018-04-23T08:51:50.972Z,17.68
2018-04-23T08:52:55.912Z,17.55
2018-04-23T08:54:00.641Z,17.96
2018-04-23T08:55:06.765Z,17.95
2018-04-23T08:56:11.400Z,17.12
2018-04-23T08:57:16.126Z,17.47
2018-04-23T08:58:20.892Z,18.10
2018-04-23T08:59:25.856Z,18.06
2018-04-23T09:00:30.553Z,17.88
2018-04-23T09:01:35.302Z,17.80
2018-04-23T09:02:39.938Z,17.98
2018-04-23T09:03:44.493Z,18.21
2018-04-23T09:04:49.174Z,18.46
2018-04-23T09:05:54.350Z,17.66
2018-04-23T09:06:59.033Z,17.55
2018-04-23T09:08:04.414Z,17.97
2018-04-23T09:09:09.072Z,17.48
2018-04-23T09:10:13.767Z,17.70
2018-04-23T09:11:18.401Z,17.42
2018-04-23T09:12:23.539Z,17.98
2018-04-23T09:13:28.216Z,17.66
2018-04-23T09:14:32.929Z,18.40
2018-04-23T09:15:37.585Z,19.00
2018-04-23T09:16:42.942Z,18.76
2018-04-23T09:17:47.545Z,18.54
2018-04-23T09:18:52.773Z,18.39
2018-04-23T09:19:57.515Z,19.28
2018-04-23T09:21:02.195Z,18.83
2018-04-23T09:22:06.862Z,18.75
2018-04-23T09:23:11.599Z,18.75
2018-04-23T09:24:16.391Z,18.26
2018-04-23T09:25:22.310Z,18.20
2018-04-23T09:26:27.027Z,17.72
2018-04-23T09:27:31.716Z,17.73
2018-04-23T09:28:36.488Z,17.50
2018-04-23T09:29:41.232Z,17.37
2018-04-23T09:30:45.946Z,17.41
2018-04-23T09:31:51.382Z,17.57
2018-04-23T09:32:56.128Z,17.88
2018-04-23T09:34:00.737Z,17.98
2018-04-23T09:35:05.328Z,17.74
2018-04-23T09:36:09.894Z,17.40
2018-04-23T09:37:14.471Z,17.71
2018-04-23T09:38:19.590Z,17.24
2018-04-23T09:39:24.308Z,17.32
2018-04-23T09:40:29.073Z,17.06
2018-04-23T09:41:33.720Z,16.67
2018-04-23T09:42:38.709Z,16.97
2018-04-23T09:43:43.332Z,17.21
2018-04-23T09:44:48.561Z,17.68
2018-04-23T09:45:53.278Z,17.52
2018-04-23T09:46:58.014Z,17.34
2018-04-23T09:48:02.690Z,17.79
2018-04-23T09:49:07.454Z,17.82
2018-04-23T09:50:12.159Z,17.48
2018-04-23T09:51:17.627Z,17.47
2018-04-23T09:52:22.307Z,17.72
2018-04-23T09:53:26.961Z,17.73
2018-04-23T09:54:31.509Z,17.46
2018-04-23T09:55:36.097Z,17.69
2018-04-23T09:56:41.253Z,16.98
2018-04-23T09:57:45.794Z,17.05
2018-04-23T09:58:57.563Z,17.05
2018-04-23T10:00:02.464Z,17.19
2018-04-23T10:01:11.869Z,17.19
2018-04-23T10:02:20.620Z,17.34
2018-04-23T10:03:26.374Z,17.19
2018-04-23T10:04:31.487Z,17.38
2018-04-23T10:05:36.344Z,17.43
2018-04-23T10:06:41.883Z,17.26
2018-04-23T10:07:46.659Z,16.92
2018-04-23T10:08:51.910Z,16.98
2018-04-23T10:09:57.094Z,17.01
2018-04-23T10:11:04.288Z,16.94
2018-04-23T10:12:09.716Z,16.58
2018-04-23T10:13:17.414Z,16.51
2018-04-23T10:14:22.439Z,16.67
2018-04-23T10:15:27.181Z,16.63
2018-04-23T10:16:32.275Z,16.71
2018-04-23T10:17:37.603Z,16.86
2018-04-23T10:18:42.296Z,16.85
2018-04-23T10:19:51.478Z,16.79
2018-04-23T10:20:58.593Z,16.70
2018-04-23T10:22:04.474Z,16.82
2018-04-23T10:23:09.786Z,16.98
2018-04-23T10:24:15.623Z,17.04
2018-04-23T10:25:20.752Z,16.62
2018-04-23T10:26:25.909Z,16.69
2018-04-23T10:27:31.988Z,16.60
2018-04-23T10:28:37.774Z,16.55
2018-04-23T10:29:43.102Z,16.49
2018-04-23T10:30:47.856Z,17.11
2018-04-23T10:31:53.273Z,17.65
2018-04-23T10:32:58.540Z,17.72
2018-04-23T10:34:04.947Z,17.58
2018-04-23T10:35:10.684Z,17.59
2018-04-23T10:36:17.033Z,17.56
2018-04-23T10:37:22.131Z,17.36
2018-04-23T10:38:27.740Z,17.04
2018-04-23T10:39:32.936Z,17.03
2018-04-23T10:40:39.167Z,17.00
2018-04-23T10:41:44.548Z,17.18
2018-04-23T10:42:49.236Z,16.90
2018-04-23T10:43:54.093Z,17.11
2018-04-23T10:44:58.719Z,16.88
2018-04-23T10:46:06.500Z,16.63
2018-04-23T10:47:11.236Z,16.92
2018-04-23T10:48:16.416Z,16.79
2018-04-23T10:49:22.012Z,16.50
2018-04-23T10:50:28.692Z,16.60
2018-04-23T10:51:33.575Z,16.67
2018-04-23T10:52:39.056Z,17.13
2018-04-23T10:53:43.923Z,17.34
2018-04-23T10:54:48.893Z,17.37
2018-04-23T10:55:54.248Z,17.44
2018-04-23T10:57:00.380Z,17.79
2018-04-23T10:58:05.517Z,17.61
2018-04-23T10:59:11.353Z,17.12
2018-04-23T11:00:16.163Z,17.04
2018-04-23T11:01:21.181Z,17.11
2018-04-23T11:02:25.956Z,17.39
2018-04-23T11:03:32.436Z,17.01
2018-04-23T11:04:37.824Z,17.09
2018-04-23T11:05:43.023Z,17.29
2018-04-23T11:06:48.152Z,17.37
2018-04-23T11:07:53.269Z,17.41
2018-04-23T11:08:59.626Z,17.48
2018-04-23T11:10:05.764Z,17.48
2018-04-23T11:11:11.858Z,17.48
2018-04-23T11:12:17.065Z,17.18
2018-04-23T11:13:22.230Z,17.35
2018-04-23T11:14:28.211Z,17.28
2018-04-23T11:15:33.371Z,17.50
2018-04-23T11:16:39.211Z,17.36
2018-04-23T11:17:45.689Z,17.68
2018-04-23T11:18:50.384Z,17.90
2018-04-23T11:19:55.458Z,17.79
2018-04-23T11:21:00.925Z,18.27
2018-04-23T11:22:06.929Z,18.74
2018-04-23T11:23:12.596Z,18.59
2018-04-23T11:24:17.841Z,18.92
2018-04-23T11:25:23.089Z,18.12
2018-04-23T11:26:27.812Z,17.76
2018-04-23T11:27:34.113Z,17.92
2018-04-23T11:28:38.973Z,17.83
2018-04-23T11:29:44.169Z,17.28
2018-04-23T11:30:50.179Z,17.69
2018-04-23T11:31:57.756Z,17.94
2018-04-23T11:33:02.309Z,18.39
2018-04-23T11:34:07.846Z,18.09
2018-04-23T11:35:12.691Z,17.96
2018-04-23T11:36:17.704Z,18.64
2018-04-23T11:37:23.999Z,18.79
2018-04-23T11:38:28.603Z,18.69
2018-04-23T11:39:34.179Z,19.03
2018-04-23T11:40:39.924Z,19.11
2018-04-23T11:41:44.883Z,18.84
2018-04-23T11:42:50.224Z,18.26
2018-04-23T11:43:56.372Z,17.33
2018-04-23T11:45:02.011Z,17.51
2018-04-23T11:46:06.805Z,17.62
2018-04-23T11:47:11.317Z,17.87
2018-04-23T11:48:16.805Z,17.94
2018-04-23T11:49:21.806Z,17.40
2018-04-23T11:50:27.728Z,17.06
2018-04-23T11:51:32.601Z,17.29
2018-04-23T11:52:38.058Z,17.72
2018-04-23T11:53:43.440Z,17.78
2018-04-23T11:54:49.725Z,17.63
2018-04-23T11:55:55.238Z,17.54
2018-04-23T11:57:01.971Z,17.48
2018-04-23T11:58:07.357Z,17.51
2018-04-23T11:59:12.177Z,17.24
2018-04-23T12:00:17.716Z,16.78
2018-04-23T12:01:24.858Z,17.05
2018-04-23T12:02:29.298Z,16.97
2018-04-23T12:03:34.614Z,16.74
2018-04-23T12:04:39.564Z,17.05
2018-04-23T12:05:44.475Z,17.08
2018-04-23T12:06:50.284Z,17.13
2018-04-23T12:07:56.073Z,17.22
2018-04-23T12:09:03.205Z,17.78
2018-04-23T12:10:09.177Z,18.33
2018-04-23T12:11:14.044Z,18.00
2018-04-23T12:12:19.097Z,17.87
2018-04-23T12:13:25.630Z,18.25
2018-04-23T12:14:33.820Z,17.85
2018-04-23T12:15:38.450Z,17.43
2018-04-23T12:16:43.722Z,17.70
2018-04-23T12:17:48.352Z,17.90
2018-04-23T12:18:53.886Z,17.75
2018-04-23T12:19:59.347Z,17.96
2018-04-23T12:21:05.150Z,17.84
2018-04-23T12:22:09.871Z,17.97
2018-04-23T12:23:14.774Z,18.42
2018-04-23T12:24:19.458Z,18.43
2018-04-23T12:25:26.221Z,17.63
2018-04-23T12:26:31.197Z,17.62
2018-04-23T12:27:36.504Z,16.96
2018-04-23T12:28:44.284Z,17.34
2018-04-23T12:29:49.306Z,17.25
2018-04-23T12:30:53.979Z,17.35
2018-04-23T12:31:58.730Z,17.49
2018-04-23T12:33:03.924Z,17.66
2018-04-23T12:34:09.002Z,17.89
2018-04-23T12:35:13.678Z,18.20
2018-04-23T12:36:19.370Z,18.59
2018-04-23T12:37:23.945Z,18.95
2018-04-23T12:38:28.511Z,18.82
2018-04-23T12:39:33.664Z,18.73
2018-04-23T12:40:38.356Z,18.50
2018-04-23T12:41:43.161Z,18.81
2018-04-23T12:42:48.434Z,18.45
2018-04-23T12:43:53.713Z,17.92
2018-04-23T12:44:59.185Z,17.55
2018-04-23T12:46:04.533Z,17.78
2018-04-23T12:47:10.739Z,18.41
2018-04-23T12:48:16.680Z,18.59
2018-04-23T12:49:22.617Z,19.43
2018-04-23T12:50:28.471Z,20.09
2018-04-23T12:51:33.392Z,19.85
2018-04-23T12:52:38.601Z,20.20
2018-04-23T12:53:43.715Z,20.45
2018-04-23T12:54:49.396Z,19.77
2018-04-23T12:55:55.542Z,19.69
2018-04-23T12:57:01.765Z,19.83
2018-04-23T12:58:06.786Z,20.12
2018-04-23T12:59:12.424Z,20.12
2018-04-23T13:00:17.414Z,20.39
2018-04-23T13:01:22.256Z,20.64
2018-04-23T13:02:30.502Z,20.47
2018-04-23T13:03:34.913Z,20.39
2018-04-23T13:04:39.714Z,20.19
2018-04-23T13:05:45.393Z,19.19
2018-04-23T13:06:50.253Z,18.75
2018-04-23T13:07:55.801Z,19.08
2018-04-23T13:09:00.889Z,19.32
2018-04-23T13:10:06.190Z,19.24
2018-04-23T13:11:12.154Z,19.00
2018-04-23T13:12:20.692Z,19.03
2018-04-23T13:13:25.280Z,19.12
2018-04-23T13:14:30.144Z,19.30
2018-04-23T13:15:34.753Z,19.30
2018-04-23T13:16:40.315Z,19.00
2018-04-23T13:17:45.891Z,19.05
2018-04-23T13:18:51.662Z,18.84
2018-04-23T13:19:57.289Z,19.03
2018-04-23T13:21:02.400Z,18.88
2018-04-23T13:22:07.951Z,19.05
2018-04-23T13:23:12.819Z,18.81
2018-04-23T13:24:18.551Z,18.63
2018-04-23T13:25:23.214Z,18.92
2018-04-23T13:26:28.001Z,19.07
2018-04-23T13:27:32.841Z,19.23
2018-04-23T13:28:38.002Z,18.97
2018-04-23T13:29:43.989Z,18.89
2018-04-23T13:30:49.362Z,18.93
2018-04-23T13:31:54.079Z,18.80
2018-04-23T13:33:00.173Z,18.94
2018-04-23T13:34:06.545Z,18.76
2018-04-23T13:35:11.093Z,18.70
2018-04-23T13:36:16.806Z,18.68
2018-04-23T13:37:22.090Z,18.14
2018-04-23T13:38:32.738Z,17.96
2018-04-23T13:39:39.287Z,18.13
2018-04-23T13:40:44.543Z,17.93
2018-04-23T13:41:49.358Z,18.03
2018-04-23T13:42:54.102Z,18.12
2018-04-23T13:44:00.140Z,17.89
2018-04-23T13:45:06.443Z,17.80
2018-04-23T13:46:12.655Z,18.34
2018-04-23T13:47:17.271Z,18.84
2018-04-23T13:48:21.884Z,18.35
2018-04-23T13:49:27.869Z,18.01
2018-04-23T13:50:33.585Z,18.75
2018-04-23T13:51:39.101Z,18.81
2018-04-23T13:52:43.753Z,18.35
2018-04-23T13:53:49.097Z,19.27
2018-04-23T13:54:56.211Z,19.12
2018-04-23T13:56:01.278Z,18.88
2018-04-23T13:57:07.439Z,18.73
2018-04-23T13:58:12.621Z,18.67
2018-04-23T13:59:17.560Z,19.24
2018-04-23T14:00:22.387Z,19.71
2018-04-23T14:01:27.132Z,19.36